Time;durP1;ratioP1;P1;durP2;ratioP2;P2;SDS_P1;SDS_P2;PMS_P1;PMS_P2;Temp;Humidity;BMP_temperature;BMP_pressure;BME280_temperature;BME280_humidity;BME280_pressure;Samples;Min_cycle;Max_cycle;Signal;HPM_P1;HPM_P2
2024/02/04 00:00:28;;;;;;;52.27;48.60;;;;;;;;;;5111720;28;20835;-78
2024/02/04 00:02:55;;;;;;;51.70;48.03;;;;;;;;;;5112581;28;20448;-78
2024/02/04 00:05:23;;;;;;;47.50;44.27;;;;;;;;;;5112276;28;20468;-78
2024/02/04 00:07:50;;;;;;;51.60;47.97;;;;;;;;;;5112062;28;20789;-78
2024/02/04 00:10:20;;;;;;;50.50;46.90;;;;;;;;;;5106687;28;20549;-78
2024/02/04 00:12:47;;;;;;;51.83;47.73;;;;;;;;;;5091969;28;20449;-78
2024/02/04 00:15:14;;;;;;;49.97;46.30;;;;;;;;;;5091818;28;20448;-78
2024/02/04 00:17:41;;;;;;;52.30;48.43;;;;;;;;;;5091418;28;20444;-79
2024/02/04 00:20:09;;;;;;;49.63;46.53;;;;;;;;;;5091463;28;21006;-78
2024/02/04 00:22:37;;;;;;;51.03;47.77;;;;;;;;;;5091917;28;20445;-77
2024/02/04 00:25:05;;;;;;;50.70;47.50;;;;;;;;;;5091809;28;20808;-78
2024/02/04 00:27:33;;;;;;;47.70;44.70;;;;;;;;;;5090922;28;21026;-78
2024/02/04 00:30:00;;;;;;;46.00;43.10;;;;;;;;;;5091048;28;20491;-77
2024/02/04 00:32:28;;;;;;;47.17;44.23;;;;;;;;;;5091260;28;20851;-77
2024/02/04 00:34:56;;;;;;;45.10;42.40;;;;;;;;;;5090501;28;20471;-78
2024/02/04 00:37:23;;;;;;;48.13;44.60;;;;;;;;;;5090590;28;20437;-77
2024/02/04 00:39:50;;;;;;;47.77;44.57;;;;;;;;;;5090894;28;20492;-77
2024/02/04 00:42:17;;;;;;;47.37;44.43;;;;;;;;;;5091131;28;20507;-78
2024/02/04 00:44:46;;;;;;;47.93;45.00;;;;;;;;;;5090342;28;20445;-77
2024/02/04 00:47:14;;;;;;;46.90;44.00;;;;;;;;;;5089631;28;20468;-79
2024/02/04 00:49:41;;;;;;;46.53;43.53;;;;;;;;;;5091117;28;20464;-79
2024/02/04 00:52:08;;;;;;;43.93;41.63;;;;;;;;;;5090700;28;21006;-79
2024/02/04 00:54:38;;;;;;;46.37;43.67;;;;;;;;;;5090922;28;20445;-78
2024/02/04 00:57:06;;;;;;;48.43;45.23;;;;;;;;;;5090587;28;20444;-78
2024/02/04 00:59:36;;;;;;;48.63;45.23;;;;;;;;;;5090390;28;20558;-78
2024/02/04 01:02:05;;;;;;;46.47;43.50;;;;;;;;;;5090455;28;20460;-77
2024/02/04 01:04:32;;;;;;;47.80;44.90;;;;;;;;;;5090690;28;20445;-77
2024/02/04 01:06:59;;;;;;;47.53;44.23;;;;;;;;;;5090846;28;20445;-78
2024/02/04 01:09:26;;;;;;;47.87;44.97;;;;;;;;;;5095834;28;20472;-77
2024/02/04 01:11:53;;;;;;;46.87;44.07;;;;;;;;;;5111287;28;20440;-79
2024/02/04 01:14:20;;;;;;;47.50;44.50;;;;;;;;;;5111590;28;20793;-79
2024/02/04 01:16:48;;;;;;;48.90;45.80;;;;;;;;;;5109974;28;20813;-77
2024/02/04 01:19:19;;;;;;;51.07;47.47;;;;;;;;;;5111364;28;20464;-77
2024/02/04 01:21:45;;;;;;;45.90;42.90;;;;;;;;;;5111106;28;20471;-77
2024/02/04 01:24:12;;;;;;;49.37;45.90;;;;;;;;;;5093210;28;20501;-78
2024/02/04 01:26:39;;;;;;;48.90;45.47;;;;;;;;;;5110634;28;20459;-78
2024/02/04 01:29:06;;;;;;;49.00;45.83;;;;;;;;;;5111595;28;20536;-77
2024/02/04 01:31:33;;;;;;;50.23;46.53;;;;;;;;;;5112098;28;20474;-79
2024/02/04 01:34:01;;;;;;;51.67;47.97;;;;;;;;;;5111696;28;20414;-79
2024/02/04 01:36:30;;;;;;;50.03;46.10;;;;;;;;;;5110715;28;20479;-79
2024/02/04 01:38:58;;;;;;;53.30;48.73;;;;;;;;;;5111159;28;20459;-78
2024/02/04 01:41:27;;;;;;;64.47;59.53;;;;;;;;;;5111638;28;20995;-77
2024/02/04 01:43:54;;;;;;;65.87;60.57;;;;;;;;;;5111973;28;20450;-78
2024/02/04 01:46:22;;;;;;;63.80;58.50;;;;;;;;;;5110692;28;20944;-77
2024/02/04 01:48:49;;;;;;;63.97;58.70;;;;;;;;;;5110823;28;20464;-78
2024/02/04 01:51:18;;;;;;;70.33;64.57;;;;;;;;;;5111932;28;20444;-77
2024/02/04 01:53:48;;;;;;;78.73;72.23;;;;;;;;;;5111354;28;20426;-78
2024/02/04 01:56:15;;;;;;;79.50;73.00;;;;;;;;;;5111872;28;20452;-79
2024/02/04 01:58:43;;;;;;;73.63;68.23;;;;;;;;;;5114102;28;20447;-78
2024/02/04 02:01:11;;;;;;;72.67;66.93;;;;;;;;;;5115110;28;21084;-79
2024/02/04 02:03:39;;;;;;;71.27;65.67;;;;;;;;;;5115622;28;20512;-78
2024/02/04 02:06:07;;;;;;;60.27;56.20;;;;;;;;;;5115705;28;20493;-79
2024/02/04 02:08:35;;;;;;;65.80;61.20;;;;;;;;;;5115843;28;20485;-77
2024/02/04 02:11:08;;;;;;;74.40;69.20;;;;;;;;;;5112680;28;20904;-78
2024/02/04 02:13:37;;;;;;;77.73;71.73;;;;;;;;;;5113842;28;20459;-78
2024/02/04 02:16:09;;;;;;;77.03;71.53;;;;;;;;;;5113150;28;21056;-79
2024/02/04 02:18:39;;;;;;;64.17;59.63;;;;;;;;;;5114401;28;20837;-79
2024/02/04 02:21:14;;;;;;;72.00;66.50;;;;;;;;;;5113851;28;20586;-78
2024/02/04 02:23:44;;;;;;;66.50;61.80;;;;;;;;;;5114935;28;20432;-79
2024/02/04 02:26:13;;;;;;;58.67;55.17;;;;;;;;;;5113504;28;20769;-78
2024/02/04 02:28:42;;;;;;;61.07;57.53;;;;;;;;;;5114755;28;20862;-78
2024/02/04 02:31:09;;;;;;;58.27;54.70;;;;;;;;;;5114593;28;20466;-78
2024/02/04 02:33:37;;;;;;;65.03;60.73;;;;;;;;;;5114543;28;20415;-78
2024/02/04 02:36:07;;;;;;;69.97;65.00;;;;;;;;;;5112966;28;20516;-78
2024/02/04 02:38:39;;;;;;;61.53;57.70;;;;;;;;;;5114689;28;20704;-78
2024/02/04 02:41:07;;;;;;;63.97;59.70;;;;;;;;;;5114110;28;20940;-78
2024/02/04 02:43:35;;;;;;;64.43;60.13;;;;;;;;;;5114246;28;20448;-78
2024/02/04 02:46:03;;;;;;;61.03;57.13;;;;;;;;;;5114213;28;20419;-78
2024/02/04 02:48:30;;;;;;;65.07;60.60;;;;;;;;;;5114327;28;20988;-78
2024/02/04 02:50:58;;;;;;;60.40;56.40;;;;;;;;;;5113999;28;20456;-78
2024/02/04 02:53:25;;;;;;;60.70;57.03;;;;;;;;;;5114479;28;20943;-79
2024/02/04 02:55:53;;;;;;;60.30;56.67;;;;;;;;;;5114861;28;20497;-78
2024/02/04 02:58:20;;;;;;;58.47;54.83;;;;;;;;;;5114643;28;20452;-78
2024/02/04 03:00:49;;;;;;;55.07;51.70;;;;;;;;;;5114615;28;20480;-78
2024/02/04 03:03:16;;;;;;;65.40;60.67;;;;;;;;;;5114839;28;20443;-78
2024/02/04 03:05:44;;;;;;;56.87;53.57;;;;;;;;;;5114597;28;20464;-79
2024/02/04 03:08:11;;;;;;;61.47;57.20;;;;;;;;;;5113733;28;20480;-78
2024/02/04 03:10:38;;;;;;;58.70;54.93;;;;;;;;;;5114315;28;20529;-78
2024/02/04 03:13:06;;;;;;;56.93;53.73;;;;;;;;;;5113974;28;20548;-79
2024/02/04 03:15:33;;;;;;;59.53;55.60;;;;;;;;;;5113567;28;20460;-78
2024/02/04 03:18:01;;;;;;;56.07;52.57;;;;;;;;;;5113318;28;20500;-79
2024/02/04 03:20:28;;;;;;;57.17;53.67;;;;;;;;;;5120298;28;20488;-79
2024/02/04 03:22:56;;;;;;;56.30;52.80;;;;;;;;;;5111501;28;20448;-78
2024/02/04 03:25:26;;;;;;;59.27;55.63;;;;;;;;;;5106740;28;20518;-79
2024/02/04 03:27:53;;;;;;;62.47;58.73;;;;;;;;;;5098526;28;20476;-78
2024/02/04 03:30:20;;;;;;;62.33;58.73;;;;;;;;;;5105763;28;20469;-79
2024/02/04 03:32:47;;;;;;;63.83;59.53;;;;;;;;;;5093133;28;20448;-78
2024/02/04 03:35:18;;;;;;;66.90;62.33;;;;;;;;;;5093423;28;20494;-79
2024/02/04 03:37:45;;;;;;;64.10;60.27;;;;;;;;;;5093187;28;20634;-79
2024/02/04 03:40:13;;;;;;;65.80;61.40;;;;;;;;;;5094324;28;20469;-79
2024/02/04 03:42:40;;;;;;;65.03;60.60;;;;;;;;;;5093972;28;20440;-79
2024/02/04 03:45:08;;;;;;;63.10;59.00;;;;;;;;;;5093434;28;20960;-77
2024/02/04 03:47:35;;;;;;;66.30;61.93;;;;;;;;;;5096452;28;21016;-78
2024/02/04 03:50:03;;;;;;;62.37;58.40;;;;;;;;;;5093401;28;20490;-77
2024/02/04 03:52:32;;;;;;;62.57;58.47;;;;;;;;;;5093608;28;20894;-78
2024/02/04 03:55:00;;;;;;;64.23;60.10;;;;;;;;;;5093759;28;20452;-78
2024/02/04 03:57:27;;;;;;;63.37;59.27;;;;;;;;;;5092649;28;20440;-79
2024/02/04 03:59:54;;;;;;;60.93;57.60;;;;;;;;;;5093613;28;20522;-77
2024/02/04 04:02:21;;;;;;;64.80;61.00;;;;;;;;;;5093340;28;20523;-78
2024/02/04 04:04:48;;;;;;;61.87;58.07;;;;;;;;;;5097839;28;21027;-78
2024/02/04 04:07:15;;;;;;;66.17;62.47;;;;;;;;;;5092118;28;20445;-78
2024/02/04 04:09:46;;;;;;;63.00;59.30;;;;;;;;;;5102458;28;21176;-78
2024/02/04 04:12:14;;;;;;;62.40;58.77;;;;;;;;;;5112631;28;20436;-77
2024/02/04 04:14:40;;;;;;;63.20;59.40;;;;;;;;;;5112843;28;20924;-78
2024/02/04 04:17:08;;;;;;;56.87;53.50;;;;;;;;;;5111846;28;20451;-78
2024/02/04 04:19:35;;;;;;;60.33;57.07;;;;;;;;;;5111478;28;20557;-78
2024/02/04 04:22:03;;;;;;;58.43;55.17;;;;;;;;;;5112241;28;20558;-78
2024/02/04 04:24:31;;;;;;;53.70;50.87;;;;;;;;;;5112310;28;20444;-78
2024/02/04 04:26:59;;;;;;;50.00;47.60;;;;;;;;;;5111797;28;20447;-78
2024/02/04 04:29:26;;;;;;;46.70;44.03;;;;;;;;;;5111636;28;20467;-77
2024/02/04 04:31:53;;;;;;;43.90;41.30;;;;;;;;;;5111936;28;20494;-77
2024/02/04 04:34:20;;;;;;;47.30;44.77;;;;;;;;;;5112007;28;20502;-78
2024/02/04 04:36:47;;;;;;;42.30;40.10;;;;;;;;;;5110893;28;20452;-77
2024/02/04 04:39:15;;;;;;;41.73;39.73;;;;;;;;;;5111040;28;20498;-77
2024/02/04 04:41:43;;;;;;;35.47;33.67;;;;;;;;;;5110921;28;20479;-78
2024/02/04 04:44:12;;;;;;;33.93;32.27;;;;;;;;;;5111141;28;20504;-77
2024/02/04 04:46:39;;;;;;;35.07;33.47;;;;;;;;;;5111945;28;20492;-79
2024/02/04 04:49:06;;;;;;;36.87;34.97;;;;;;;;;;5114667;28;20460;-78
2024/02/04 04:51:33;;;;;;;35.73;33.93;;;;;;;;;;5113538;28;20448;-78
2024/02/04 04:54:00;;;;;;;37.83;35.97;;;;;;;;;;5111759;28;20443;-77
2024/02/04 04:56:27;;;;;;;33.60;32.00;;;;;;;;;;5111006;28;20989;-78
2024/02/04 04:58:54;;;;;;;36.13;34.53;;;;;;;;;;5112049;28;20839;-78
2024/02/04 05:01:23;;;;;;;34.90;33.30;;;;;;;;;;5111852;28;20548;-78
2024/02/04 05:03:50;;;;;;;36.03;34.23;;;;;;;;;;5111576;28;20455;-79
2024/02/04 05:06:17;;;;;;;36.07;34.33;;;;;;;;;;5111490;28;20472;-78
2024/02/04 05:08:45;;;;;;;36.37;34.57;;;;;;;;;;5116974;28;20455;-78
2024/02/04 05:11:12;;;;;;;34.70;33.20;;;;;;;;;;5111495;28;20500;-79
2024/02/04 05:13:40;;;;;;;36.43;34.43;;;;;;;;;;5114915;28;20448;-79
2024/02/04 05:16:07;;;;;;;35.57;33.83;;;;;;;;;;5113021;28;20498;-78
2024/02/04 05:18:36;;;;;;;36.30;34.60;;;;;;;;;;5112141;28;20949;-78
2024/02/04 05:21:03;;;;;;;39.60;37.50;;;;;;;;;;5110383;28;20476;-77
2024/02/04 05:23:30;;;;;;;42.00;39.80;;;;;;;;;;5112034;28;20497;-79
2024/02/04 05:25:57;;;;;;;42.30;39.80;;;;;;;;;;5110947;28;20456;-78
2024/02/04 05:28:24;;;;;;;40.57;38.57;;;;;;;;;;5112392;28;20451;-81
2024/02/04 05:30:51;;;;;;;44.03;41.73;;;;;;;;;;5110405;28;20540;-77
2024/02/04 05:33:18;;;;;;;40.43;38.37;;;;;;;;;;5114544;28;20504;-77
2024/02/04 05:35:47;;;;;;;42.10;39.70;;;;;;;;;;5114404;28;20516;-78
2024/02/04 05:38:14;;;;;;;42.70;40.30;;;;;;;;;;5114222;28;20440;-78
2024/02/04 05:40:43;;;;;;;43.27;41.07;;;;;;;;;;5114379;28;20483;-78
2024/02/04 05:43:11;;;;;;;42.50;40.27;;;;;;;;;;5113973;28;20480;-77
2024/02/04 05:45:40;;;;;;;42.50;40.30;;;;;;;;;;5114302;28;20463;-77
2024/02/04 05:48:07;;;;;;;38.87;36.83;;;;;;;;;;5113813;28;20491;-77
2024/02/04 05:50:35;;;;;;;39.50;37.50;;;;;;;;;;5114306;28;20468;-77
2024/02/04 05:53:04;;;;;;;35.10;33.27;;;;;;;;;;5113704;28;20992;-78
2024/02/04 05:55:30;;;;;;;36.90;34.33;;;;;;;;;;5114140;28;20476;-77
2024/02/04 05:57:58;;;;;;;38.73;36.33;;;;;;;;;;5113725;28;20798;-78
2024/02/04 06:00:26;;;;;;;41.73;38.93;;;;;;;;;;5114035;28;20524;-77
2024/02/04 06:02:53;;;;;;;41.27;38.97;;;;;;;;;;5114166;28;20501;-77
2024/02/04 06:05:21;;;;;;;39.47;37.07;;;;;;;;;;5114131;28;20450;-77
2024/02/04 06:07:48;;;;;;;44.30;41.70;;;;;;;;;;5113678;28;20440;-77
2024/02/04 06:10:18;;;;;;;38.53;36.10;;;;;;;;;;5113514;28;20882;-76
2024/02/04 06:12:46;;;;;;;37.67;35.43;;;;;;;;;;5113756;28;20501;-77
2024/02/04 06:15:14;;;;;;;35.67;33.70;;;;;;;;;;5113674;28;20874;-77
2024/02/04 06:17:41;;;;;;;35.63;33.33;;;;;;;;;;5113603;28;20526;-77
2024/02/04 06:20:09;;;;;;;35.93;33.73;;;;;;;;;;5113513;28;20471;-78
2024/02/04 06:22:36;;;;;;;35.13;33.10;;;;;;;;;;5113243;28;20483;-78
2024/02/04 06:25:03;;;;;;;31.23;29.47;;;;;;;;;;5113580;28;20444;-77
2024/02/04 06:27:32;;;;;;;29.80;28.17;;;;;;;;;;5112738;28;20448;-77
2024/02/04 06:30:00;;;;;;;29.53;27.77;;;;;;;;;;5113132;28;20494;-77
2024/02/04 06:32:27;;;;;;;26.50;25.17;;;;;;;;;;5113430;28;20436;-77
2024/02/04 06:34:55;;;;;;;24.70;23.40;;;;;;;;;;5113123;28;20444;-77
2024/02/04 06:37:22;;;;;;;28.07;26.30;;;;;;;;;;5112756;28;20448;-78
2024/02/04 06:39:49;;;;;;;28.70;27.00;;;;;;;;;;5112939;28;20567;-77
2024/02/04 06:42:17;;;;;;;28.13;26.40;;;;;;;;;;5112704;28;20488;-77
2024/02/04 06:44:46;;;;;;;27.40;25.73;;;;;;;;;;5112114;28;20460;-77
2024/02/04 06:47:14;;;;;;;27.57;26.07;;;;;;;;;;5112289;28;20936;-77
2024/02/04 06:49:41;;;;;;;28.23;26.50;;;;;;;;;;5113006;28;20460;-77
2024/02/04 06:52:10;;;;;;;29.40;27.43;;;;;;;;;;5121573;28;20462;-78
2024/02/04 06:54:37;;;;;;;30.93;29.00;;;;;;;;;;5113109;28;20448;-78
2024/02/04 06:57:07;;;;;;;31.10;29.20;;;;;;;;;;5111842;28;20440;-77
2024/02/04 06:59:34;;;;;;;30.60;28.90;;;;;;;;;;5112704;28;20572;-77
2024/02/04 07:02:03;;;;;;;31.27;29.57;;;;;;;;;;5112569;28;20591;-77
2024/02/04 07:04:30;;;;;;;31.27;29.00;;;;;;;;;;5112755;28;20539;-77
2024/02/04 07:06:57;;;;;;;31.37;29.30;;;;;;;;;;5111781;28;20505;-77
2024/02/04 07:09:23;;;;;;;31.70;29.93;;;;;;;;;;5112614;28;20464;-78
2024/02/04 07:11:51;;;;;;;31.07;29.03;;;;;;;;;;5112798;28;20448;-77
2024/02/04 07:14:17;;;;;;;34.43;32.23;;;;;;;;;;5112348;28;20509;-77
2024/02/04 07:16:45;;;;;;;34.97;32.80;;;;;;;;;;5111803;28;20467;-78
2024/02/04 07:19:13;;;;;;;32.93;30.90;;;;;;;;;;5112137;28;20456;-76
2024/02/04 07:21:40;;;;;;;35.50;33.10;;;;;;;;;;5112311;28;20429;-77
2024/02/04 07:24:07;;;;;;;31.53;29.50;;;;;;;;;;5112213;28;20448;-77
2024/02/04 07:26:34;;;;;;;35.43;32.43;;;;;;;;;;5111696;28;20444;-78
2024/02/04 07:29:02;;;;;;;34.07;31.30;;;;;;;;;;5111895;28;20464;-77
2024/02/04 07:31:29;;;;;;;33.37;31.07;;;;;;;;;;5112316;28;20817;-77
2024/02/04 07:33:56;;;;;;;38.90;36.10;;;;;;;;;;5112351;28;20497;-78
2024/02/04 07:36:24;;;;;;;40.90;38.00;;;;;;;;;;5111619;28;20501;-78
2024/02/04 07:38:52;;;;;;;47.67;43.60;;;;;;;;;;5111844;28;20452;-77
2024/02/04 07:41:19;;;;;;;46.83;42.60;;;;;;;;;;5112208;28;20402;-78
2024/02/04 07:43:47;;;;;;;40.37;37.33;;;;;;;;;;5111783;28;20475;-78
2024/02/04 07:46:15;;;;;;;42.53;39.43;;;;;;;;;;5111719;28;20432;-78
2024/02/04 07:48:42;;;;;;;50.67;46.63;;;;;;;;;;5111734;28;20546;-79
2024/02/04 07:51:09;;;;;;;46.67;43.03;;;;;;;;;;5111668;28;20444;-78
2024/02/04 07:53:37;;;;;;;44.67;41.37;;;;;;;;;;5111870;28;20440;-77
2024/02/04 07:56:06;;;;;;;40.47;37.00;;;;;;;;;;5111755;28;20500;-78
2024/02/04 07:58:33;;;;;;;39.50;37.00;;;;;;;;;;5111919;28;20517;-78
2024/02/04 08:01:01;;;;;;;41.27;38.30;;;;;;;;;;5111555;28;20472;-76
2024/02/04 08:03:28;;;;;;;35.30;32.70;;;;;;;;;;5111727;28;20476;-78
2024/02/04 08:05:55;;;;;;;32.80;31.00;;;;;;;;;;5111687;28;20471;-78
2024/02/04 08:08:22;;;;;;;36.87;34.00;;;;;;;;;;5110911;28;20436;-78
2024/02/04 08:10:56;;;;;;;32.87;30.90;;;;;;;;;;5110874;28;21251;-77
2024/02/04 08:13:23;;;;;;;35.70;33.20;;;;;;;;;;5111592;28;20460;-78
2024/02/04 08:15:50;;;;;;;35.97;33.10;;;;;;;;;;5111614;28;20490;-78
2024/02/04 08:18:18;;;;;;;32.97;30.23;;;;;;;;;;5111044;28;20444;-78
2024/02/04 08:20:46;;;;;;;34.80;32.43;;;;;;;;;;5111169;28;20472;-78
2024/02/04 08:23:13;;;;;;;32.50;30.10;;;;;;;;;;5111296;28;20491;-77
2024/02/04 08:25:43;;;;;;;30.87;29.10;;;;;;;;;;5111035;28;20410;-78
2024/02/04 08:28:11;;;;;;;29.37;27.53;;;;;;;;;;5110847;28;20445;-78
2024/02/04 08:30:39;;;;;;;32.00;29.77;;;;;;;;;;5110805;28;21017;-77
2024/02/04 08:33:06;;;;;;;29.07;27.57;;;;;;;;;;5110748;28;20422;-78
2024/02/04 08:35:35;;;;;;;28.87;27.17;;;;;;;;;;5110794;28;20504;-78
2024/02/04 08:38:04;;;;;;;27.93;26.23;;;;;;;;;;5110285;28;20432;-77
2024/02/04 08:40:32;;;;;;;25.27;23.50;;;;;;;;;;5111051;28;20521;-78
2024/02/04 08:42:59;;;;;;;23.20;21.80;;;;;;;;;;5111091;28;20569;-78
2024/02/04 08:45:27;;;;;;;23.23;21.83;;;;;;;;;;5111272;28;20422;-77
2024/02/04 08:47:58;;;;;;;22.60;21.00;;;;;;;;;;5110379;28;20980;-78
2024/02/04 08:50:25;;;;;;;23.53;21.87;;;;;;;;;;5110710;28;20994;-77
2024/02/04 08:52:52;;;;;;;22.67;21.57;;;;;;;;;;5095607;28;20482;-77
2024/02/04 08:55:19;;;;;;;23.43;22.00;;;;;;;;;;5090498;28;20774;-77
2024/02/04 08:57:48;;;;;;;21.80;20.57;;;;;;;;;;5089817;28;20445;-77
2024/02/04 09:00:15;;;;;;;20.67;19.60;;;;;;;;;;5090158;28;21090;-78
2024/02/04 09:02:44;;;;;;;21.87;20.63;;;;;;;;;;5090332;28;20553;-76
2024/02/04 09:05:12;;;;;;;21.30;20.17;;;;;;;;;;5089631;28;20465;-76
2024/02/04 09:07:40;;;;;;;22.00;20.53;;;;;;;;;;5092499;28;20494;-77
2024/02/04 09:10:08;;;;;;;20.23;18.73;;;;;;;;;;5095534;28;20508;-77
2024/02/04 09:12:35;;;;;;;19.47;18.50;;;;;;;;;;5116017;28;20969;-79
2024/02/04 09:15:04;;;;;;;21.50;19.90;;;;;;;;;;5114102;28;20471;-80
2024/02/04 09:17:33;;;;;;;21.00;19.47;;;;;;;;;;5093777;28;20449;-77
2024/02/04 09:20:02;;;;;;;18.77;17.87;;;;;;;;;;5114402;28;20487;-76
2024/02/04 09:22:29;;;;;;;20.47;18.90;;;;;;;;;;5108632;28;20533;-77
2024/02/04 09:24:56;;;;;;;19.60;18.30;;;;;;;;;;5114801;28;20497;-76
2024/02/04 09:27:24;;;;;;;18.43;17.33;;;;;;;;;;5113914;28;20456;-77
2024/02/04 09:29:51;;;;;;;21.03;19.77;;;;;;;;;;5114654;28;20460;-77
2024/02/04 09:32:18;;;;;;;19.97;18.20;;;;;;;;;;5114933;28;20447;-77
2024/02/04 09:34:46;;;;;;;18.17;17.20;;;;;;;;;;5102620;28;20540;-77
2024/02/04 09:37:17;;;;;;;19.67;18.10;;;;;;;;;;5093876;28;20440;-79
2024/02/04 09:39:44;;;;;;;18.13;16.90;;;;;;;;;;5094546;28;20493;-78
2024/02/04 09:42:12;;;;;;;19.23;18.23;;;;;;;;;;5093924;28;20494;-79
2024/02/04 09:44:39;;;;;;;19.27;18.17;;;;;;;;;;5094399;28;20441;-78
2024/02/04 09:47:07;;;;;;;20.13;18.87;;;;;;;;;;5111331;28;20844;-78
2024/02/04 09:49:35;;;;;;;20.17;19.07;;;;;;;;;;5110562;28;20514;-77
2024/02/04 09:52:05;;;;;;;18.83;17.63;;;;;;;;;;5093647;28;20472;-77
2024/02/04 09:54:33;;;;;;;28.77;19.20;;;;;;;;;;5106585;28;20451;-81
2024/02/04 09:57:01;;;;;;;18.60;17.50;;;;;;;;;;5121441;28;20460;-80
2024/02/04 09:59:29;;;;;;;17.47;16.27;;;;;;;;;;5114755;28;20531;-80
2024/02/04 10:01:56;;;;;;;18.27;17.30;;;;;;;;;;5123569;28;20955;-81
2024/02/04 10:04:24;;;;;;;19.50;18.20;;;;;;;;;;5120377;28;20458;-80
2024/02/04 10:06:51;;;;;;;17.37;16.17;;;;;;;;;;5122937;28;20471;-81
2024/02/04 10:09:18;;;;;;;16.73;15.53;;;;;;;;;;5115292;28;20525;-79
2024/02/04 10:11:46;;;;;;;17.50;16.47;;;;;;;;;;5108369;28;20814;-80
2024/02/04 10:14:13;;;;;;;18.17;16.87;;;;;;;;;;5119005;28;20427;-78
2024/02/04 10:16:42;;;;;;;16.53;15.73;;;;;;;;;;5100896;28;20476;-80
2024/02/04 10:19:09;;;;;;;18.30;16.87;;;;;;;;;;5100728;28;20461;-87
2024/02/04 10:21:37;;;;;;;19.00;17.70;;;;;;;;;;5103294;28;20413;-79
2024/02/04 10:24:04;;;;;;;18.77;17.37;;;;;;;;;;5105197;28;20484;-80
2024/02/04 10:26:34;;;;;;;16.87;15.33;;;;;;;;;;5097322;28;20493;-81
2024/02/04 10:29:02;;;;;;;19.10;17.77;;;;;;;;;;5113381;28;20454;-79
2024/02/04 10:31:30;;;;;;;17.57;16.57;;;;;;;;;;5116592;28;20440;-80
2024/02/04 10:33:57;;;;;;;16.57;15.77;;;;;;;;;;5110671;28;20937;-81
2024/02/04 10:36:26;;;;;;;16.70;15.70;;;;;;;;;;5104706;28;20438;-80
2024/02/04 10:38:55;;;;;;;17.63;16.73;;;;;;;;;;5116794;28;20435;-80
2024/02/04 10:41:23;;;;;;;18.07;16.97;;;;;;;;;;5118363;28;20444;-79
2024/02/04 10:43:50;;;;;;;16.80;15.80;;;;;;;;;;5117996;28;20522;-80
2024/02/04 10:46:19;;;;;;;17.20;15.83;;;;;;;;;;5117819;28;20440;-79
2024/02/04 10:48:50;;;;;;;17.47;16.30;;;;;;;;;;5119042;28;20819;-79
2024/02/04 10:51:18;;;;;;;18.50;17.30;;;;;;;;;;5110995;28;20518;-80
2024/02/04 10:53:45;;;;;;;18.00;16.53;;;;;;;;;;5106408;28;20475;-78
2024/02/04 10:56:17;;;;;;;18.33;16.80;;;;;;;;;;5098933;28;20415;-87
2024/02/04 10:58:45;;;;;;;18.10;16.70;;;;;;;;;;5099450;28;20424;-87
2024/02/04 11:01:12;;;;;;;17.10;16.10;;;;;;;;;;5113522;28;20434;-87
2024/02/04 11:03:42;;;;;;;17.20;15.90;;;;;;;;;;5120281;28;20450;-82
2024/02/04 11:06:10;;;;;;;17.50;16.03;;;;;;;;;;5120179;28;20471;-87
2024/02/04 11:08:37;;;;;;;16.37;15.47;;;;;;;;;;5120433;28;20456;-87
2024/02/04 11:11:04;;;;;;;18.40;17.03;;;;;;;;;;5120271;28;20820;-87
2024/02/04 11:13:32;;;;;;;16.90;16.00;;;;;;;;;;5120298;28;20534;-88
2024/02/04 11:16:02;;;;;;;17.43;16.37;;;;;;;;;;5120104;28;20437;-88
2024/02/04 11:18:35;;;;;;;17.83;16.60;;;;;;;;;;5120696;28;20845;-88
2024/02/04 11:21:12;;;;;;;17.33;16.03;;;;;;;;;;5119752;28;20479;-87
2024/02/04 11:23:45;;;;;;;15.90;15.10;;;;;;;;;;5120239;28;20902;-87
2024/02/04 11:26:12;;;;;;;16.37;15.57;;;;;;;;;;5119485;28;20416;-87
2024/02/04 11:28:40;;;;;;;18.17;16.90;;;;;;;;;;5119856;28;20451;-88
2024/02/04 11:31:14;;;;;;;18.57;17.37;;;;;;;;;;5119512;28;20444;-87
2024/02/04 11:33:41;;;;;;;18.70;17.70;;;;;;;;;;5123331;28;20403;-86
2024/02/04 11:36:13;;;;;;;17.50;16.60;;;;;;;;;;5122089;28;20448;-86
2024/02/04 11:38:41;;;;;;;18.17;16.90;;;;;;;;;;5122251;28;20395;-86
2024/02/04 11:41:09;;;;;;;17.27;16.20;;;;;;;;;;5122017;28;20489;-86
2024/02/04 11:43:38;;;;;;;17.87;16.87;;;;;;;;;;5121566;28;20476;-87
2024/02/04 11:46:05;;;;;;;16.80;15.80;;;;;;;;;;5120210;28;20973;-83
2024/02/04 11:48:34;;;;;;;17.90;16.90;;;;;;;;;;5117844;28;20460;-88
2024/02/04 11:51:01;;;;;;;21.03;19.50;;;;;;;;;;5115544;28;20466;-86
2024/02/04 11:53:32;;;;;;;20.93;19.63;;;;;;;;;;5124417;28;20452;-86
2024/02/04 11:56:00;;;;;;;19.43;18.23;;;;;;;;;;5111964;28;20955;-86
2024/02/04 11:58:28;;;;;;;20.53;19.10;;;;;;;;;;5122698;28;20447;-86
2024/02/04 12:00:57;;;;;;;20.37;19.00;;;;;;;;;;5123304;28;20468;-86
2024/02/04 12:03:30;;;;;;;19.50;18.20;;;;;;;;;;5123672;28;20490;-86
2024/02/04 12:05:58;;;;;;;20.03;18.53;;;;;;;;;;5123318;28;20512;-86
2024/02/04 12:08:26;;;;;;;22.20;20.70;;;;;;;;;;5123346;28;20513;-86
2024/02/04 12:10:56;;;;;;;23.53;21.90;;;;;;;;;;5124181;28;20831;-87
2024/02/04 12:13:23;;;;;;;22.33;20.77;;;;;;;;;;5123817;28;20951;-86
2024/02/04 12:15:50;;;;;;;23.03;21.43;;;;;;;;;;5123587;28;20509;-86
2024/02/04 12:18:19;;;;;;;23.93;22.23;;;;;;;;;;5123394;28;20486;-86
2024/02/04 12:20:48;;;;;;;21.80;20.43;;;;;;;;;;5123905;28;20499;-86
2024/02/04 12:23:15;;;;;;;20.50;19.40;;;;;;;;;;5120596;28;20493;-86
2024/02/04 12:25:42;;;;;;;23.50;21.63;;;;;;;;;;5119741;28;20448;-87
2024/02/04 12:28:13;;;;;;;23.17;21.50;;;;;;;;;;5118528;28;20452;-87
2024/02/04 12:30:40;;;;;;;24.60;23.00;;;;;;;;;;5119338;28;20870;-87
2024/02/04 12:33:08;;;;;;;23.00;21.40;;;;;;;;;;5119210;28;20443;-87
2024/02/04 12:35:36;;;;;;;20.43;19.33;;;;;;;;;;5119156;28;20551;-86
2024/02/04 12:38:03;;;;;;;26.03;24.10;;;;;;;;;;5118880;28;20478;-87
2024/02/04 12:40:31;;;;;;;23.53;21.87;;;;;;;;;;5118955;28;20464;-87
2024/02/04 12:42:58;;;;;;;25.70;24.10;;;;;;;;;;5116481;28;20448;-88
2024/02/04 12:45:28;;;;;;;26.00;24.13;;;;;;;;;;5116483;28;20479;-88
2024/02/04 12:47:57;;;;;;;22.87;21.50;;;;;;;;;;5116280;28;21017;-87
2024/02/04 12:50:24;;;;;;;26.77;24.90;;;;;;;;;;5114251;28;20598;-81
2024/02/04 12:52:52;;;;;;;24.33;22.70;;;;;;;;;;5118649;28;20501;-79
2024/02/04 12:55:25;;;;;;;24.40;22.20;;;;;;;;;;5113287;28;20485;-79
2024/02/04 12:57:53;;;;;;;24.33;22.53;;;;;;;;;;5116389;28;20435;-83
2024/02/04 13:00:20;;;;;;;22.80;21.30;;;;;;;;;;5116467;28;20460;-84
2024/02/04 13:02:54;;;;;;;24.40;22.90;;;;;;;;;;5101002;28;20495;-83
2024/02/04 13:05:25;;;;;;;22.40;21.20;;;;;;;;;;5096255;28;20476;-80
2024/02/04 13:07:55;;;;;;;21.93;20.50;;;;;;;;;;5096027;28;20455;-80
2024/02/04 13:10:22;;;;;;;23.07;21.40;;;;;;;;;;5094807;28;20443;-79
2024/02/04 13:12:59;;;;;;;22.33;20.70;;;;;;;;;;5095017;28;20437;-78
2024/02/04 13:15:26;;;;;;;23.30;21.90;;;;;;;;;;5095023;28;20436;-79
2024/02/04 13:17:56;;;;;;;24.87;23.33;;;;;;;;;;5097266;28;20964;-80
2024/02/04 13:20:23;;;;;;;24.43;22.60;;;;;;;;;;5097716;28;20476;-77
2024/02/04 13:22:50;;;;;;;20.03;19.03;;;;;;;;;;5096365;28;21094;-83
2024/02/04 13:25:18;;;;;;;23.43;21.80;;;;;;;;;;5111227;28;20545;-77
2024/02/04 13:27:45;;;;;;;22.27;20.87;;;;;;;;;;5109765;28;20448;-77
2024/02/04 13:30:13;;;;;;;22.83;21.63;;;;;;;;;;5110418;28;20506;-77
2024/02/04 13:32:41;;;;;;;21.93;20.60;;;;;;;;;;5115224;28;20534;-80
2024/02/04 13:35:10;;;;;;;20.77;19.87;;;;;;;;;;5117381;28;20444;-79
2024/02/04 13:37:37;;;;;;;19.60;18.50;;;;;;;;;;5116532;28;20880;-81
2024/02/04 13:40:06;;;;;;;20.17;19.17;;;;;;;;;;5115988;28;20553;-79
2024/02/04 13:42:34;;;;;;;21.97;20.77;;;;;;;;;;5116874;28;20547;-79
2024/02/04 13:45:02;;;;;;;22.47;21.17;;;;;;;;;;5116533;28;20537;-79
2024/02/04 13:47:30;;;;;;;21.10;20.10;;;;;;;;;;5114544;28;20425;-80
2024/02/04 13:49:57;;;;;;;22.80;21.37;;;;;;;;;;5114026;28;20884;-78
2024/02/04 13:52:25;;;;;;;25.17;23.87;;;;;;;;;;5120222;28;20432;-81
2024/02/04 13:54:52;;;;;;;26.33;24.63;;;;;;;;;;5117388;28;20432;-79
2024/02/04 13:57:20;;;;;;;26.07;24.77;;;;;;;;;;5114357;28;20792;-78
2024/02/04 13:59:47;;;;;;;26.73;25.33;;;;;;;;;;5115705;28;20467;-78
2024/02/04 14:02:14;;;;;;;26.50;25.20;;;;;;;;;;5116737;28;20505;-79
2024/02/04 14:04:41;;;;;;;27.50;26.00;;;;;;;;;;5116039;28;20507;-79
2024/02/04 14:07:10;;;;;;;25.53;24.23;;;;;;;;;;5116953;28;20444;-83
2024/02/04 14:09:38;;;;;;;24.97;23.70;;;;;;;;;;5117157;28;20925;-78
2024/02/04 14:12:05;;;;;;;25.20;24.00;;;;;;;;;;5117253;28;20961;-79
2024/02/04 14:14:32;;;;;;;28.53;27.23;;;;;;;;;;5117583;28;20492;-80
2024/02/04 14:16:59;;;;;;;27.10;25.80;;;;;;;;;;5121247;28;20474;-83
2024/02/04 14:19:27;;;;;;;26.93;25.53;;;;;;;;;;5123261;28;20536;-82